Time;durP1;ratioP1;P1;durP2;ratioP2;P2;SDS_P1;SDS_P2;PMS_P1;PMS_P2;Temp;Humidity;BMP_temperature;BMP_pressure;BME280_temperature;BME280_humidity;BME280_pressure;Samples;Min_cycle;Max_cycle;Signal;HPM_P1;HPM_P2
2022/11/12 00:01:19;;;;;;;2.50;2.30;;;;;;;;;;4973702;28;43896;-62
2022/11/12 00:04:08;;;;;;;2.65;2.45;;;;;;;;;;4976674;28;43366;-62
2022/11/12 00:06:54;;;;;;;2.47;2.33;;;;;;;;;;4978970;28;43465;-61
2022/11/12 00:09:41;;;;;;;2.88;2.40;;;;;;;;;;4973804;28;44821;-61
2022/11/12 00:12:27;;;;;;;2.90;2.70;;;;;;;;;;4968598;28;43608;-62
2022/11/12 00:15:14;;;;;;;2.50;2.30;;;;;;;;;;4982942;28;43606;-62
2022/11/12 00:18:00;;;;;;;2.72;2.63;;;;;;;;;;4972232;28;43575;-62
2022/11/12 00:20:47;;;;;;;2.47;2.30;;;;;;;;;;4976454;28;43566;-61
2022/11/12 00:23:33;;;;;;;2.70;2.50;;;;;;;;;;4974837;28;43717;-62
2022/11/12 00:26:20;;;;;;;2.33;2.20;;;;;;;;;;4976152;28;44073;-62
2022/11/12 00:29:06;;;;;;;2.70;2.50;;;;;;;;;;4977665;28;43557;-62
2022/11/12 00:31:53;;;;;;;2.42;2.22;;;;;;;;;;4972932;28;44746;-61
2022/11/12 00:34:40;;;;;;;2.40;2.20;;;;;;;;;;4978683;28;43975;-62
2022/11/12 00:37:26;;;;;;;2.35;2.15;;;;;;;;;;4975833;28;43418;-62
2022/11/12 00:40:13;;;;;;;2.25;2.15;;;;;;;;;;4975630;28;43548;-61
2022/11/12 00:42:59;;;;;;;2.17;2.08;;;;;;;;;;4976176;28;44816;-62
2022/11/12 00:45:46;;;;;;;2.35;2.25;;;;;;;;;;4975889;28;43510;-62
2022/11/12 00:48:32;;;;;;;2.40;2.20;;;;;;;;;;4982665;28;43577;-62
2022/11/12 00:51:19;;;;;;;2.20;2.10;;;;;;;;;;4976803;28;43453;-61
2022/11/12 00:54:05;;;;;;;2.40;2.20;;;;;;;;;;4978507;28;43949;-62
2022/11/12 00:56:52;;;;;;;2.42;2.22;;;;;;;;;;4973143;28;43462;-61
2022/11/12 00:59:38;;;;;;;2.38;2.17;;;;;;;;;;4976184;28;43346;-61
2022/11/12 01:02:25;;;;;;;2.42;2.22;;;;;;;;;;4978159;28;43621;-61
2022/11/12 01:05:11;;;;;;;2.60;2.40;;;;;;;;;;4971474;28;43887;-62
2022/11/12 01:07:58;;;;;;;2.40;2.20;;;;;;;;;;4977928;28;43967;-61
2022/11/12 01:10:45;;;;;;;2.13;2.03;;;;;;;;;;4974344;28;43396;-61
2022/11/12 01:13:31;;;;;;;2.35;2.20;;;;;;;;;;4976105;28;43445;-61
2022/11/12 01:16:19;;;;;;;2.10;2.00;;;;;;;;;;4976633;28;44874;-62
2022/11/12 01:19:07;;;;;;;2.33;2.13;;;;;;;;;;4972637;28;43850;-62
2022/11/12 01:21:53;;;;;;;2.47;2.28;;;;;;;;;;4972065;28;43421;-62
2022/11/12 01:24:39;;;;;;;2.33;2.13;;;;;;;;;;4977837;28;43491;-62
2022/11/12 01:27:26;;;;;;;2.00;1.90;;;;;;;;;;4975090;28;44967;-61
2022/11/12 01:30:13;;;;;;;2.13;2.03;;;;;;;;;;4971838;28;43797;-61
2022/11/12 01:32:59;;;;;;;2.40;2.20;;;;;;;;;;4975417;28;43363;-62
2022/11/12 01:35:45;;;;;;;1.90;1.80;;;;;;;;;;4980848;28;43560;-62
2022/11/12 01:38:38;;;;;;;2.40;2.20;;;;;;;;;;4974495;28;44976;-62
2022/11/12 01:41:26;;;;;;;2.00;1.90;;;;;;;;;;4982464;28;44065;-62
2022/11/12 01:44:16;;;;;;;2.08;1.98;;;;;;;;;;4976875;28;43422;-62
2022/11/12 01:47:02;;;;;;;2.05;1.95;;;;;;;;;;4978090;28;43510;-62
2022/11/12 01:49:51;;;;;;;2.25;2.10;;;;;;;;;;4983935;28;44038;-62
2022/11/12 01:52:49;;;;;;;1.98;1.88;;;;;;;;;;4978938;28;43999;-61
2022/11/12 01:55:37;;;;;;;2.05;1.95;;;;;;;;;;4980597;28;43388;-62
2022/11/12 01:58:26;;;;;;;1.95;1.75;;;;;;;;;;4978559;28;43375;-62
2022/11/12 02:01:13;;;;;;;2.00;1.90;;;;;;;;;;4981646;28;43980;-62
2022/11/12 02:03:59;;;;;;;2.10;2.00;;;;;;;;;;4977454;28;43923;-62
2022/11/12 02:06:47;;;;;;;2.00;1.90;;;;;;;;;;4978225;28;43406;-61
2022/11/12 02:09:34;;;;;;;1.92;1.83;;;;;;;;;;4975469;28;43405;-61
2022/11/12 02:15:26;;;;;;;1.85;1.75;;;;;;;;;;4978447;28;43514;-61
2022/11/12 02:18:13;;;;;;;1.67;1.58;;;;;;;;;;4978077;28;43490;-61
2022/11/12 02:21:03;;;;;;;2.00;1.90;;;;;;;;;;4981327;28;43576;-62
2022/11/12 02:23:58;;;;;;;2.10;2.00;;;;;;;;;;4973538;28;43642;-61
2022/11/12 02:26:46;;;;;;;2.30;2.20;;;;;;;;;;4980891;28;43399;-61
2022/11/12 02:29:32;;;;;;;1.98;1.88;;;;;;;;;;4977782;28;43451;-62
2022/11/12 02:32:19;;;;;;;1.85;1.75;;;;;;;;;;4977713;28;43457;-61
2022/11/12 02:35:05;;;;;;;1.90;1.80;;;;;;;;;;4974811;28;44733;-61
2022/11/12 02:37:51;;;;;;;2.10;2.00;;;;;;;;;;4977728;28;43977;-62
2022/11/12 02:40:38;;;;;;;2.15;1.92;;;;;;;;;;4981222;28;43394;-62
2022/11/12 02:43:24;;;;;;;2.15;2.00;;;;;;;;;;4973449;28;43526;-61
2022/11/12 02:46:11;;;;;;;2.03;1.88;;;;;;;;;;4980681;28;44021;-61
2022/11/12 02:48:58;;;;;;;2.20;2.10;;;;;;;;;;4977506;28;43416;-62
2022/11/12 02:51:44;;;;;;;2.20;2.00;;;;;;;;;;4978258;28;43486;-62
2022/11/12 02:54:31;;;;;;;1.92;1.83;;;;;;;;;;4972648;28;43462;-62
2022/11/12 02:57:17;;;;;;;2.00;1.90;;;;;;;;;;4973194;28;44309;-61
2022/11/12 03:00:05;;;;;;;1.90;1.80;;;;;;;;;;4974152;28;43441;-62
2022/11/12 03:02:57;;;;;;;2.08;1.90;;;;;;;;;;4976351;28;43476;-61
2022/11/12 03:05:45;;;;;;;1.90;1.80;;;;;;;;;;4977525;28;43482;-61
2022/11/12 03:08:31;;;;;;;2.08;1.98;;;;;;;;;;4977311;28;43997;-61
2022/11/12 03:11:17;;;;;;;1.83;1.73;;;;;;;;;;4978018;28;43943;-62
2022/11/12 03:14:04;;;;;;;1.85;1.75;;;;;;;;;;4980316;28;43460;-61
2022/11/12 03:16:50;;;;;;;2.20;2.00;;;;;;;;;;4977163;28;43484;-62
2022/11/12 03:19:36;;;;;;;2.10;2.00;;;;;;;;;;4980511;28;43884;-61
2022/11/12 03:22:23;;;;;;;1.80;1.70;;;;;;;;;;4974607;28;43423;-62
2022/11/12 03:25:10;;;;;;;2.00;1.90;;;;;;;;;;4979957;28;43528;-61
2022/11/12 03:28:03;;;;;;;1.90;1.80;;;;;;;;;;4979089;28;43454;-62
2022/11/12 03:30:50;;;;;;;1.92;1.83;;;;;;;;;;4977198;28;44997;-62
2022/11/12 03:33:36;;;;;;;1.80;1.70;;;;;;;;;;4980810;28;43442;-62
2022/11/12 03:36:23;;;;;;;1.80;1.70;;;;;;;;;;4976317;28;43502;-62
2022/11/12 03:39:09;;;;;;;2.00;1.90;;;;;;;;;;4976667;28;43538;-62
2022/11/12 03:41:56;;;;;;;2.75;2.10;;;;;;;;;;4968835;28;44966;-62
2022/11/12 03:44:42;;;;;;;4.00;1.90;;;;;;;;;;4979018;28;43680;-61
2022/11/12 03:47:28;;;;;;;1.90;1.80;;;;;;;;;;4974071;28;43441;-62
2022/11/12 03:50:16;;;;;;;2.42;2.00;;;;;;;;;;4976802;28;43409;-62
2022/11/12 03:53:02;;;;;;;1.90;1.80;;;;;;;;;;4973366;28;43945;-61
2022/11/12 03:55:49;;;;;;;2.00;1.90;;;;;;;;;;4974082;28;43546;-61
2022/11/12 03:58:35;;;;;;;2.20;2.10;;;;;;;;;;4982723;28;43494;-62
2022/11/12 04:01:21;;;;;;;2.53;2.00;;;;;;;;;;4980012;28;43498;-61
2022/11/12 04:04:09;;;;;;;2.20;2.00;;;;;;;;;;4974481;28;43738;-61
2022/11/12 04:10:01;;;;;;;2.05;1.95;;;;;;;;;;4954526;28;43460;-62
2022/11/12 04:22:21;;;;;;;2.13;1.95;;;;;;;;;;4977012;28;43467;-62
2022/11/12 04:28:14;;;;;;;1.83;1.73;;;;;;;;;;4976109;28;44119;-61
2022/11/12 04:31:00;;;;;;;2.00;1.90;;;;;;;;;;4977884;28;43445;-61
2022/11/12 04:33:47;;;;;;;2.17;2.08;;;;;;;;;;4976065;28;43411;-61
2022/11/12 04:36:33;;;;;;;2.50;2.30;;;;;;;;;;4980025;28;43470;-61
2022/11/12 04:39:19;;;;;;;2.10;2.00;;;;;;;;;;4975061;28;44992;-61
2022/11/12 04:45:13;;;;;;;2.10;1.90;;;;;;;;;;4976006;28;43485;-61
2022/11/12 04:47:59;;;;;;;2.13;2.03;;;;;;;;;;4974461;28;43450;-61
2022/11/12 04:50:47;;;;;;;2.20;2.10;;;;;;;;;;4972518;28;43567;-61
2022/11/12 04:53:33;;;;;;;2.08;1.98;;;;;;;;;;4975676;28;44124;-61
2022/11/12 04:56:20;;;;;;;2.22;2.13;;;;;;;;;;4962272;28;43369;-61
2022/11/12 04:59:06;;;;;;;2.33;2.13;;;;;;;;;;4976060;28;43523;-61
2022/11/12 05:01:53;;;;;;;2.17;2.08;;;;;;;;;;4978119;28;45306;-61
2022/11/12 05:04:39;;;;;;;2.20;2.00;;;;;;;;;;4973402;28;44076;-61
2022/11/12 05:07:26;;;;;;;2.40;2.20;;;;;;;;;;4975739;28;43450;-62
2022/11/12 05:10:12;;;;;;;2.65;2.28;;;;;;;;;;4971358;28;43537;-61
2022/11/12 05:12:59;;;;;;;2.20;2.00;;;;;;;;;;4982397;28;43785;-61
2022/11/12 05:15:45;;;;;;;2.35;2.17;;;;;;;;;;4971744;28;43837;-61
2022/11/12 05:18:32;;;;;;;2.33;2.15;;;;;;;;;;4974179;28;43465;-62
2022/11/12 05:24:29;;;;;;;2.40;2.20;;;;;;;;;;4977890;28;44065;-62
2022/11/12 05:27:27;;;;;;;2.40;2.17;;;;;;;;;;4978913;28;43569;-61
2022/11/12 05:30:13;;;;;;;2.28;2.08;;;;;;;;;;4972393;28;43441;-62
2022/11/12 05:33:00;;;;;;;2.20;2.10;;;;;;;;;;4975599;28;44109;-62
2022/11/12 05:35:46;;;;;;;2.30;2.10;;;;;;;;;;4977049;28;45032;-61
2022/11/12 05:38:33;;;;;;;2.40;2.20;;;;;;;;;;4980402;28;43421;-61
2022/11/12 05:41:19;;;;;;;2.40;2.20;;;;;;;;;;4972501;28;43469;-61
2022/11/12 05:44:06;;;;;;;2.30;2.17;;;;;;;;;;4973026;28;43563;-61
2022/11/12 05:46:52;;;;;;;2.58;2.30;;;;;;;;;;4967121;28;44965;-61
2022/11/12 05:49:39;;;;;;;2.58;2.38;;;;;;;;;;4982405;28;43959;-63
2022/11/12 05:52:25;;;;;;;2.80;2.08;;;;;;;;;;4972463;28;43410;-62
2022/11/12 05:55:12;;;;;;;2.47;2.28;;;;;;;;;;4978662;28;43450;-62
2022/11/12 05:57:58;;;;;;;2.40;2.20;;;;;;;;;;4955226;28;44079;-62
2022/11/12 06:00:44;;;;;;;2.50;2.30;;;;;;;;;;4974591;28;43395;-62
2022/11/12 06:03:31;;;;;;;2.95;2.20;;;;;;;;;;4968357;28;43593;-62
2022/11/12 06:06:17;;;;;;;2.38;2.17;;;;;;;;;;4974175;28;43513;-62
2022/11/12 06:09:04;;;;;;;2.72;2.35;;;;;;;;;;4977465;28;44778;-62
2022/11/12 06:11:50;;;;;;;2.60;2.40;;;;;;;;;;4974233;28;43469;-62
2022/11/12 06:14:37;;;;;;;3.33;2.70;;;;;;;;;;4981421;28;43318;-62
2022/11/12 06:17:23;;;;;;;3.10;2.50;;;;;;;;;;4979106;28;43486;-62
2022/11/12 06:20:10;;;;;;;2.78;2.40;;;;;;;;;;4979779;28;44893;-62
2022/11/12 06:22:57;;;;;;;3.30;2.58;;;;;;;;;;4980606;28;43514;-62
2022/11/12 06:25:43;;;;;;;3.58;2.58;;;;;;;;;;4980170;28;43557;-62
2022/11/12 06:28:30;;;;;;;2.72;2.50;;;;;;;;;;4980637;28;43506;-62
2022/11/12 06:31:17;;;;;;;3.05;2.70;;;;;;;;;;4975647;28;44036;-62
2022/11/12 06:34:03;;;;;;;3.03;2.65;;;;;;;;;;4978803;28;43474;-62
2022/11/12 06:36:50;;;;;;;3.05;2.63;;;;;;;;;;4977300;28;43424;-62
2022/11/12 06:39:36;;;;;;;3.42;2.50;;;;;;;;;;4973470;28;43495;-62
2022/11/12 06:42:22;;;;;;;3.72;3.17;;;;;;;;;;4965871;28;44035;-61
2022/11/12 06:45:09;;;;;;;3.17;2.60;;;;;;;;;;4981114;28;44038;-61
2022/11/12 06:47:58;;;;;;;4.30;2.83;;;;;;;;;;4980774;28;43477;-61
2022/11/12 06:50:45;;;;;;;4.32;2.90;;;;;;;;;;4974333;28;43461;-61
2022/11/12 06:53:31;;;;;;;3.45;2.78;;;;;;;;;;4979626;28;43812;-62
2022/11/12 06:56:18;;;;;;;3.67;2.80;;;;;;;;;;4981296;28;43450;-62
2022/11/12 06:59:04;;;;;;;4.28;3.20;;;;;;;;;;4973316;28;43579;-61
2022/11/12 07:01:51;;;;;;;3.13;2.80;;;;;;;;;;4974787;28;43558;-61
2022/11/12 07:04:37;;;;;;;3.20;2.90;;;;;;;;;;4979518;28;44900;-62
2022/11/12 07:07:23;;;;;;;3.83;2.75;;;;;;;;;;4976132;28;44150;-61
2022/11/12 07:10:10;;;;;;;3.60;3.15;;;;;;;;;;4983172;28;43478;-62
2022/11/12 07:12:56;;;;;;;3.30;2.92;;;;;;;;;;4978286;28;43532;-61
2022/11/12 07:15:43;;;;;;;5.55;3.53;;;;;;;;;;4974249;28;44945;-61
2022/11/12 07:18:30;;;;;;;3.97;3.08;;;;;;;;;;4983432;28;43477;-62
2022/11/12 07:21:17;;;;;;;4.18;3.38;;;;;;;;;;4962412;28;43448;-61
2022/11/12 07:24:03;;;;;;;4.93;3.30;;;;;;;;;;4978867;28;43454;-62
2022/11/12 07:26:50;;;;;;;4.30;3.20;;;;;;;;;;4977397;28;44941;-61
2022/11/12 07:29:36;;;;;;;3.50;3.20;;;;;;;;;;4980318;28;43770;-61
2022/11/12 07:32:33;;;;;;;4.13;3.38;;;;;;;;;;4976820;28;43445;-61
2022/11/12 07:35:28;;;;;;;4.28;3.30;;;;;;;;;;4979580;28;43765;-62
2022/11/12 07:38:15;;;;;;;4.53;3.28;;;;;;;;;;4975082;28;43759;-61
2022/11/12 07:41:09;;;;;;;4.38;2.97;;;;;;;;;;4982017;28;43398;-61
2022/11/12 07:43:56;;;;;;;5.45;3.47;;;;;;;;;;4976180;28;43479;-61
2022/11/12 07:46:42;;;;;;;3.92;3.35;;;;;;;;;;4969913;28;43411;-61
2022/11/12 07:49:29;;;;;;;6.78;3.83;;;;;;;;;;4981501;28;43784;-62
2022/11/12 07:52:15;;;;;;;3.38;3.08;;;;;;;;;;4975899;28;44011;-62
2022/11/12 07:55:02;;;;;;;4.05;3.22;;;;;;;;;;4978493;28;43477;-63
2022/11/12 07:57:48;;;;;;;4.30;3.90;;;;;;;;;;4976726;28;43464;-61
2022/11/12 08:00:34;;;;;;;3.45;3.15;;;;;;;;;;4982682;28;45085;-61
2022/11/12 08:03:21;;;;;;;3.58;3.28;;;;;;;;;;4971383;28;43830;-61
2022/11/12 08:06:07;;;;;;;3.55;3.25;;;;;;;;;;4974502;28;43493;-61
2022/11/12 08:08:55;;;;;;;4.78;3.70;;;;;;;;;;4978337;28;43535;-61
2022/11/12 08:11:42;;;;;;;3.58;3.28;;;;;;;;;;4979535;28;44229;-60
2022/11/12 08:14:28;;;;;;;3.85;3.55;;;;;;;;;;4980457;28;43555;-61
2022/11/12 08:17:15;;;;;;;3.50;3.20;;;;;;;;;;4975941;28;43484;-61
2022/11/12 08:20:01;;;;;;;3.50;3.20;;;;;;;;;;4979874;28;43546;-61
2022/11/12 08:22:48;;;;;;;3.50;3.20;;;;;;;;;;4975665;28;44031;-61
2022/11/12 08:25:35;;;;;;;2.78;2.58;;;;;;;;;;4977707;28;43699;-61
2022/11/12 08:28:21;;;;;;;3.47;3.17;;;;;;;;;;4979492;28;44322;-61
2022/11/12 08:31:18;;;;;;;3.60;3.30;;;;;;;;;;4981116;28;43482;-61
2022/11/12 08:34:11;;;;;;;3.38;3.08;;;;;;;;;;4980648;28;43899;-61
2022/11/12 08:36:57;;;;;;;3.45;3.15;;;;;;;;;;4978682;28;43641;-61
2022/11/12 08:39:43;;;;;;;3.20;2.90;;;;;;;;;;4979674;28;43442;-61
2022/11/12 08:42:30;;;;;;;3.38;3.08;;;;;;;;;;4980329;28;43470;-61
2022/11/12 08:45:16;;;;;;;4.00;3.65;;;;;;;;;;4978155;28;44913;-61
2022/11/12 08:48:04;;;;;;;3.72;2.70;;;;;;;;;;4978008;28;43542;-63
2022/11/12 08:50:50;;;;;;;2.85;2.65;;;;;;;;;;4975873;28;43477;-59
2022/11/12 08:53:37;;;;;;;2.72;2.53;;;;;;;;;;4980441;28;43569;-61
2022/11/12 08:56:23;;;;;;;3.30;2.92;;;;;;;;;;4979846;28;43905;-62
2022/11/12 08:59:10;;;;;;;2.92;2.58;;;;;;;;;;4979275;28;43775;-60
2022/11/12 09:01:56;;;;;;;2.85;2.65;;;;;;;;;;4978592;28;43464;-60
2022/11/12 09:04:43;;;;;;;2.70;2.50;;;;;;;;;;4980061;28;43499;-60
2022/11/12 09:07:30;;;;;;;2.63;2.42;;;;;;;;;;4978549;28;44060;-61
2022/11/12 09:10:36;;;;;;;3.08;2.75;;;;;;;;;;4978670;28;43951;-59
2022/11/12 09:13:23;;;;;;;2.45;2.22;;;;;;;;;;4977917;28;43446;-60
2022/11/12 09:16:09;;;;;;;2.90;2.70;;;;;;;;;;4977148;28;43455;-61
2022/11/12 09:18:56;;;;;;;3.72;3.03;;;;;;;;;;4977395;28;44818;-60
2022/11/12 09:21:42;;;;;;;2.88;2.55;;;;;;;;;;4979321;28;43729;-62
2022/11/12 09:24:29;;;;;;;3.10;2.75;;;;;;;;;;4980989;28;43457;-61
2022/11/12 09:27:15;;;;;;;4.15;2.60;;;;;;;;;;4979642;28;43501;-59
2022/11/12 09:30:03;;;;;;;2.75;2.55;;;;;;;;;;4979174;28;45305;-61
2022/11/12 09:32:49;;;;;;;2.65;2.45;;;;;;;;;;4980458;28;43470;-61
2022/11/12 09:35:36;;;;;;;3.17;2.70;;;;;;;;;;4978604;28;43512;-59
2022/11/12 09:38:23;;;;;;;2.83;2.63;;;;;;;;;;4978646;28;43697;-59
2022/11/12 09:41:16;;;;;;;2.97;2.60;;;;;;;;;;4977141;28;45148;-58
2022/11/12 09:44:04;;;;;;;4.03;2.55;;;;;;;;;;4976825;28;44111;-59
2022/11/12 09:46:53;;;;;;;2.80;2.50;;;;;;;;;;4980596;28;43509;-59
2022/11/12 09:49:51;;;;;;;3.20;2.90;;;;;;;;;;4977773;28;43571;-58
2022/11/12 09:52:38;;;;;;;3.40;2.80;;;;;;;;;;4980368;28;44055;-59
2022/11/12 09:55:33;;;;;;;2.92;2.72;;;;;;;;;;4979763;28;43727;-59
2022/11/12 09:58:20;;;;;;;3.00;2.80;;;;;;;;;;4971548;28;43489;-59
2022/11/12 10:01:29;;;;;;;2.90;2.70;;;;;;;;;;4962491;28;43780;-59
2022/11/12 10:04:19;;;;;;;3.22;2.80;;;;;;;;;;4962631;28;45303;-58
2022/11/12 10:07:11;;;;;;;3.05;2.80;;;;;;;;;;4961818;28;44027;-59
2022/11/12 10:10:01;;;;;;;3.20;3.00;;;;;;;;;;4966896;28;43486;-58
2022/11/12 10:12:50;;;;;;;3.47;3.17;;;;;;;;;;4975375;28;43517;-59
2022/11/12 10:18:50;;;;;;;3.97;3.55;;;;;;;;;;4976485;28;43608;-59
2022/11/12 10:21:37;;;;;;;3.90;3.50;;;;;;;;;;4974786;28;43434;-60
2022/11/12 10:24:23;;;;;;;3.83;3.53;;;;;;;;;;4964901;28;43454;-59
2022/11/12 10:27:17;;;;;;;5.07;3.60;;;;;;;;;;4967704;28;43903;-60
2022/11/12 10:30:05;;;;;;;4.72;3.97;;;;;;;;;;4964175;28;43706;-60
2022/11/12 10:32:52;;;;;;;4.50;4.10;;;;;;;;;;4965310;28;43409;-60
2022/11/12 10:35:39;;;;;;;4.55;4.15;;;;;;;;;;4968162;28;43558;-60
2022/11/12 10:38:26;;;;;;;4.03;3.63;;;;;;;;;;4959738;28;43856;-60
2022/11/12 10:41:17;;;;;;;4.38;3.72;;;;;;;;;;4959517;28;43882;-60
2022/11/12 10:44:05;;;;;;;4.22;3.83;;;;;;;;;;4957251;28;43363;-59
2022/11/12 10:46:51;;;;;;;5.57;4.10;;;;;;;;;;4963602;28;43488;-60
2022/11/12 10:49:38;;;;;;;4.82;4.35;;;;;;;;;;4965617;28;44879;-60
2022/11/12 10:52:24;;;;;;;5.82;4.25;;;;;;;;;;4961506;28;43875;-60
2022/11/12 10:55:16;;;;;;;5.65;4.20;;;;;;;;;;4963289;28;43566;-60
2022/11/12 10:58:04;;;;;;;5.00;4.15;;;;;;;;;;4970270;28;43561;-60
2022/11/12 11:00:58;;;;;;;4.63;4.22;;;;;;;;;;4972937;28;44812;-60
2022/11/12 11:03:47;;;;;;;5.00;4.50;;;;;;;;;;4967513;28;43788;-60
2022/11/12 11:06:34;;;;;;;4.97;4.43;;;;;;;;;;4972023;28;43538;-60
2022/11/12 11:09:21;;;;;;;4.60;4.20;;;;;;;;;;4968554;28;43461;-60
2022/11/12 11:12:22;;;;;;;4.90;4.20;;;;;;;;;;4973439;28;44067;-60
2022/11/12 11:15:09;;;;;;;;;;;;;;;;;;4975523;28;43454;-60
2022/11/12 11:17:56;;;;;;;5.00;4.50;;;;;;;;;;4957146;28;43478;-60
2022/11/12 11:20:47;;;;;;;4.97;4.47;;;;;;;;;;4945626;28;43534;-61
2022/11/12 11:23:46;;;;;;;5.15;4.65;;;;;;;;;;4974216;28;43904;-60
2022/11/12 11:26:33;;;;;;;5.25;4.72;;;;;;;;;;4972163;28;43471;-60
2022/11/12 11:29:39;;;;;;;4.70;4.30;;;;;;;;;;4946254;28;43386;-60
2022/11/12 11:32:44;;;;;;;5.30;4.80;;;;;;;;;;4969750;28;43609;-60
2022/11/12 11:35:43;;;;;;;5.20;4.70;;;;;;;;;;4973035;28;44345;-59
2022/11/12 11:38:35;;;;;;;5.63;4.88;;;;;;;;;;4974272;28;43517;-60
2022/11/12 11:41:29;;;;;;;4.78;4.38;;;;;;;;;;4945699;28;43443;-60
2022/11/12 11:44:27;;;;;;;6.68;5.20;;;;;;;;;;4960565;28;43437;-59
2022/11/12 11:47:36;;;;;;;5.72;5.00;;;;;;;;;;4960406;28;44300;-59
2022/11/12 11:50:47;;;;;;;5.90;5.38;;;;;;;;;;4959039;28;43938;-60
2022/11/12 11:53:43;;;;;;;5.40;4.60;;;;;;;;;;4963179;28;43410;-61
2022/11/12 11:56:33;;;;;;;5.50;5.00;;;;;;;;;;4959985;28;43545;-59
2022/11/12 11:59:22;;;;;;;5.50;5.00;;;;;;;;;;4980734;28;45039;-59
2022/11/12 12:02:15;;;;;;;5.55;4.95;;;;;;;;;;4982892;28;43478;-59
2022/11/12 12:05:19;;;;;;;5.45;4.95;;;;;;;;;;4979702;28;43417;-59
2022/11/12 12:08:10;;;;;;;5.88;5.00;;;;;;;;;;4978749;28;43429;-59
2022/11/12 12:10:59;;;;;;;5.93;5.25;;;;;;;;;;4977310;28;44031;-59
2022/11/12 12:14:05;;;;;;;5.60;5.10;;;;;;;;;;4972127;28;43995;-59
2022/11/12 12:17:09;;;;;;;5.40;4.90;;;;;;;;;;4972887;28;43485;-59
2022/11/12 12:20:01;;;;;;;5.45;4.95;;;;;;;;;;4977759;28;43446;-59
2022/11/12 12:23:00;;;;;;;5.38;4.90;;;;;;;;;;4972831;28;44987;-59
2022/11/12 12:25:48;;;;;;;5.13;4.63;;;;;;;;;;4977253;28;43473;-59
2022/11/12 12:28:34;;;;;;;5.43;4.93;;;;;;;;;;4982814;28;43477;-59
2022/11/12 12:31:24;;;;;;;5.60;5.10;;;;;;;;;;4976390;28;43499;-59
2022/11/12 12:34:23;;;;;;;6.32;5.72;;;;;;;;;;4975540;28;43785;-60
2022/11/12 12:37:20;;;;;;;6.00;5.40;;;;;;;;;;4979230;28;43507;-59
2022/11/12 12:40:23;;;;;;;5.68;5.18;;;;;;;;;;4973412;28;43458;-59
2022/11/12 12:43:18;;;;;;;6.10;5.50;;;;;;;;;;4975753;28;43684;-59
2022/11/12 12:46:05;;;;;;;6.10;5.57;;;;;;;;;;4974563;28;43784;-60
2022/11/12 12:48:53;;;;;;;5.80;5.30;;;;;;;;;;4982937;28;43981;-60
2022/11/12 12:51:39;;;;;;;6.07;5.47;;;;;;;;;;4975983;28;43358;-60
2022/11/12 12:54:34;;;;;;;5.90;5.40;;;;;;;;;;4980127;28;43915;-60
2022/11/12 12:57:38;;;;;;;6.28;5.68;;;;;;;;;;4980341;28;44801;-59
2022/11/12 13:00:30;;;;;;;5.90;5.40;;;;;;;;;;4971985;28;43407;-59
2022/11/12 13:03:35;;;;;;;5.88;5.28;;;;;;;;;;4975595;28;43423;-59
2022/11/12 13:06:21;;;;;;;5.80;5.30;;;;;;;;;;4982135;28;43403;-60
2022/11/12 13:09:14;;;;;;;5.88;5.38;;;;;;;;;;4973224;28;44672;-60
2022/11/12 13:15:08;;;;;;;6.38;5.78;;;;;;;;;;4976177;28;43484;-60
2022/11/12 13:17:54;;;;;;;6.22;5.63;;;;;;;;;;4971951;28;43419;-60
2022/11/12 13:20:41;;;;;;;6.68;6.05;;;;;;;;;;4974580;28;44735;-60
2022/11/12 13:26:56;;;;;;;6.90;6.20;;;;;;;;;;4972845;28;43358;-60
2022/11/12 13:29:43;;;;;;;6.28;5.78;;;;;;;;;;4977260;28;43384;-60
2022/11/12 13:32:32;;;;;;;6.00;5.50;;;;;;;;;;4974916;28;44845;-60
2022/11/12 13:35:21;;;;;;;7.38;5.65;;;;;;;;;;4978419;28;44079;-59
2022/11/12 13:38:07;;;;;;;6.57;5.97;;;;;;;;;;4974073;28;43490;-59
2022/11/12 13:41:05;;;;;;;6.15;5.65;;;;;;;;;;4976469;28;43553;-60
2022/11/12 13:43:52;;;;;;;6.55;5.85;;;;;;;;;;4975376;28;45012;-59
2022/11/12 13:46:38;;;;;;;6.90;6.30;;;;;;;;;;4975556;28;43913;-60
2022/11/12 13:49:24;;;;;;;6.90;6.30;;;;;;;;;;4977840;28;43413;-60
2022/11/12 13:52:14;;;;;;;6.22;5.63;;;;;;;;;;4976739;28;43499;-61
2022/11/12 13:55:01;;;;;;;6.68;6.05;;;;;;;;;;4970778;28;45224;-60
2022/11/12 13:57:56;;;;;;;6.55;5.95;;;;;;;;;;4979915;28;43474;-60
2022/11/12 14:00:50;;;;;;;6.85;6.20;;;;;;;;;;4978262;28;43467;-60
2022/11/12 14:03:37;;;;;;;6.85;6.25;;;;;;;;;;4981895;28;43394;-60
2022/11/12 14:06:23;;;;;;;6.80;6.20;;;;;;;;;;4974727;28;44714;-60
2022/11/12 14:09:12;;;;;;;7.00;6.40;;;;;;;;;;4978119;28;43514;-60
2022/11/12 14:12:13;;;;;;;6.70;6.10;;;;;;;;;;4979608;28;43454;-60
2022/11/12 14:15:02;;;;;;;6.53;5.93;;;;;;;;;;4971208;28;43499;-60
2022/11/12 14:18:00;;;;;;;6.50;5.90;;;;;;;;;;4971929;28;44811;-60
2022/11/12 14:20:47;;;;;;;6.75;6.15;;;;;;;;;;4975499;28;43810;-60
2022/11/12 14:23:37;;;;;;;7.47;6.80;;;;;;;;;;4969744;28;43372;-60
2022/11/12 14:26:34;;;;;;;6.88;6.28;;;;;;;;;;4971960;28;43422;-60
2022/11/12 14:29:20;;;;;;;6.88;6.25;;;;;;;;;;4979318;28;43790;-60
2022/11/12 14:32:08;;;;;;;7.05;6.45;;;;;;;;;;4974225;28;43943;-60
2022/11/12 14:34:55;;;;;;;6.75;6.15;;;;;;;;;;4971514;28;43518;-60
2022/11/12 14:37:44;;;;;;;6.78;6.18;;;;;;;;;;4977417;28;43490;-60
2022/11/12 14:40:36;;;;;;;6.57;5.97;;;;;;;;;;4976934;28;44514;-60
2022/11/12 14:43:40;;;;;;;6.30;5.78;;;;;;;;;;4967771;28;43808;-60
2022/11/12 14:46:33;;;;;;;6.43;5.90;;;;;;;;;;4978091;28;43488;-60
2022/11/12 14:49:27;;;;;;;7.25;6.53;;;;;;;;;;4978305;28;43473;-60
2022/11/12 14:52:17;;;;;;;6.82;6.22;;;;;;;;;;4973701;28;43861;-60
2022/11/12 14:55:10;;;;;;;7.20;6.60;;;;;;;;;;4984398;28;44024;-60
2022/11/12 14:57:58;;;;;;;6.55;6.05;;;;;;;;;;4979772;28;44149;-60
2022/11/12 15:00:45;;;;;;;6.57;5.97;;;;;;;;;;4976634;28;43502;-60
2022/11/12 15:03:32;;;;;;;6.75;6.15;;;;;;;;;;4978743;28;44990;-59
2022/11/12 15:06:20;;;;;;;6.20;5.70;;;;;;;;;;4969623;28;43874;-60
2022/11/12 15:09:07;;;;;;;6.72;6.13;;;;;;;;;;4977706;28;43478;-60
2022/11/12 15:11:53;;;;;;;6.13;5.60;;;;;;;;;;4972201;28;43593;-60
2022/11/12 15:14:40;;;;;;;6.40;5.80;;;;;;;;;;4981988;28;43794;-60
2022/11/12 15:17:29;;;;;;;6.20;5.70;;;;;;;;;;4974602;28;43914;-61
2022/11/12 15:20:17;;;;;;;6.35;5.85;;;;;;;;;;4974895;28;43381;-60
2022/11/12 15:23:03;;;;;;;5.97;5.47;;;;;;;;;;4980023;28;43458;-60
2022/11/12 15:25:59;;;;;;;6.10;5.60;;;;;;;;;;4978952;28;45003;-60
2022/11/12 15:28:59;;;;;;;5.90;5.40;;;;;;;;;;4974975;28;44005;-60
2022/11/12 15:31:45;;;;;;;5.90;5.43;;;;;;;;;;4975647;28;43565;-60
2022/11/12 15:34:41;;;;;;;6.00;5.50;;;;;;;;;;4987234;28;43819;-60
2022/11/12 15:37:30;;;;;;;6.10;5.60;;;;;;;;;;4973826;28;43795;-60
2022/11/12 15:40:20;;;;;;;5.60;5.10;;;;;;;;;;4982527;28;43755;-60
2022/11/12 15:43:30;;;;;;;5.57;5.07;;;;;;;;;;4978289;28;43707;-60
2022/11/12 15:46:16;;;;;;;5.97;5.47;;;;;;;;;;4972685;28;43524;-60
2022/11/12 15:49:02;;;;;;;5.60;5.10;;;;;;;;;;4979241;28;44037;-60
2022/11/12 15:51:49;;;;;;;5.30;4.90;;;;;;;;;;4981628;28;43970;-60
2022/11/12 15:54:35;;;;;;;5.85;5.32;;;;;;;;;;4975845;28;43474;-60
2022/11/12 15:57:29;;;;;;;5.97;5.47;;;;;;;;;;4977865;28;43513;-60
2022/11/12 16:00:16;;;;;;;5.82;5.43;;;;;;;;;;4980319;28;44937;-60
2022/11/12 16:03:02;;;;;;;5.50;5.00;;;;;;;;;;4983030;28;43515;-59
2022/11/12 16:05:49;;;;;;;5.53;5.00;;;;;;;;;;4976797;28;43384;-59
2022/11/12 16:08:35;;;;;;;5.07;4.68;;;;;;;;;;4979807;28;43543;-59
2022/11/12 16:11:34;;;;;;;5.22;4.72;;;;;;;;;;4973951;28;44227;-59
2022/11/12 16:14:21;;;;;;;5.75;5.25;;;;;;;;;;4982211;28;43682;-60
2022/11/12 16:17:15;;;;;;;5.30;4.90;;;;;;;;;;4977382;28;43433;-60
2022/11/12 16:20:02;;;;;;;5.10;4.60;;;;;;;;;;4981427;28;43608;-59
2022/11/12 16:22:49;;;;;;;5.78;5.28;;;;;;;;;;4978002;28;43970;-59
2022/11/12 16:25:37;;;;;;;5.82;5.30;;;;;;;;;;4974859;28;43638;-60
2022/11/12 16:28:23;;;;;;;5.40;4.85;;;;;;;;;;4980548;28;43518;-60
2022/11/12 16:31:09;;;;;;;4.97;4.57;;;;;;;;;;4976161;28;43508;-59
2022/11/12 16:33:56;;;;;;;4.90;4.50;;;;;;;;;;4975204;28;44866;-60
2022/11/12 16:36:43;;;;;;;5.50;5.00;;;;;;;;;;4979581;28;43800;-59
2022/11/12 16:39:30;;;;;;;5.55;5.05;;;;;;;;;;4983391;28;43402;-59
2022/11/12 16:42:16;;;;;;;5.40;4.90;;;;;;;;;;4979181;28;43486;-59
2022/11/12 16:45:03;;;;;;;5.47;5.00;;;;;;;;;;4976425;28;43879;-59
2022/11/12 16:47:51;;;;;;;5.05;4.65;;;;;;;;;;4980653;28;43832;-59
2022/11/12 16:50:37;;;;;;;5.15;4.72;;;;;;;;;;4972575;28;43552;-60
2022/11/12 16:53:24;;;;;;;5.28;4.88;;;;;;;;;;4974688;28;43499;-60
2022/11/12 16:56:12;;;;;;;5.07;4.65;;;;;;;;;;4981491;28;45007;-59
2022/11/12 16:58:59;;;;;;;5.25;4.72;;;;;;;;;;4975217;28;44036;-59
2022/11/12 17:01:45;;;;;;;4.88;4.47;;;;;;;;;;4979041;28;43521;-59
2022/11/12 17:04:32;;;;;;;4.60;4.22;;;;;;;;;;4977743;28;43466;-59
2022/11/12 17:07:18;;;;;;;4.68;4.30;;;;;;;;;;4982353;28;44739;-59
2022/11/12 17:10:05;;;;;;;4.70;4.38;;;;;;;;;;4975107;28;43535;-59
2022/11/12 17:12:51;;;;;;;5.18;4.53;;;;;;;;;;4977027;28;43425;-59
2022/11/12 17:15:38;;;;;;;4.72;4.32;;;;;;;;;;4979220;28;43439;-60
2022/11/12 17:18:24;;;;;;;4.72;4.30;;;;;;;;;;4974284;28;44075;-59
2022/11/12 17:21:15;;;;;;;4.90;4.50;;;;;;;;;;4975360;28;43452;-60
2022/11/12 17:24:01;;;;;;;4.50;4.20;;;;;;;;;;4978851;28;43517;-59
2022/11/12 17:26:47;;;;;;;5.22;4.15;;;;;;;;;;4978942;28;43496;-59